createdAt,value
2017-04-03T00:00:28.924Z,67.6
2017-04-03T00:01:31.326Z,67.6
2017-04-03T00:02:34.170Z,67.1
2017-04-03T00:03:37.025Z,67
2017-04-03T00:04:40.123Z,67.1
2017-04-03T00:05:42.472Z,67.3
2017-04-03T00:06:45.329Z,66.4
2017-04-03T00:07:47.713Z,66.8
2017-04-03T00:08:50.421Z,66.7
2017-04-03T00:09:53.566Z,66.5
2017-04-03T00:10:55.910Z,66.4
2017-04-03T00:11:58.629Z,66.6
2017-04-03T00:13:01.483Z,66.3
2017-04-03T00:14:04.329Z,66.6
2017-04-03T00:15:07.292Z,66.2
2017-04-03T00:16:09.638Z,66.3
2017-04-03T00:17:12.484Z,66.3
2017-04-03T00:18:15.328Z,66.5
2017-04-03T00:19:18.175Z,66.3
2017-04-03T00:20:20.642Z,66.4
2017-04-03T00:22:26.275Z,66.5
2017-04-03T00:23:28.619Z,66.1
2017-04-03T00:24:31.330Z,66.2
2017-04-03T00:25:34.429Z,66.3
2017-04-03T00:26:36.770Z,66.4
2017-04-03T00:27:39.616Z,66.3
2017-04-03T00:28:42.465Z,66.2
2017-04-03T00:29:45.316Z,66.4
2017-04-03T00:30:47.917Z,66.4
2017-04-03T00:31:50.767Z,66.3
2017-04-03T00:32:52.981Z,66.5
2017-04-03T00:33:55.836Z,66.5
2017-04-03T00:34:58.546Z,66.3
2017-04-03T00:36:02.012Z,66.2
2017-04-03T00:37:04.422Z,66.3
2017-04-03T00:38:06.769Z,65.9
2017-04-03T00:39:09.658Z,66.1
2017-04-03T00:40:12.441Z,66.1
2017-04-03T00:41:15.540Z,66.2
2017-04-03T00:42:17.750Z,66.2
2017-04-03T00:43:20.596Z,66.3
2017-04-03T00:44:23.309Z,66.3
2017-04-03T00:45:26.151Z,66.4
2017-04-03T00:46:29.173Z,66.7
2017-04-03T00:47:31.456Z,66.7
2017-04-03T00:48:34.304Z,66.7
2017-04-03T00:49:37.206Z,66.4
2017-04-03T00:50:39.549Z,66.3
2017-04-03T00:51:42.512Z,66.6
2017-04-03T00:52:45.227Z,66.5
2017-04-03T00:53:47.944Z,66.7
2017-04-03T00:54:50.785Z,66.8
2017-04-03T00:55:53.136Z,66.5
2017-04-03T00:56:56.237Z,66.6
2017-04-03T00:57:58.644Z,66.4
2017-04-03T00:59:01.553Z,66.4
2017-04-03T01:00:04.403Z,66.6
2017-04-03T01:01:06.751Z,66.4
2017-04-03T01:02:09.850Z,66.5
2017-04-03T01:03:12.566Z,66
2017-04-03T01:04:14.921Z,66
2017-04-03T01:05:17.765Z,66.1
2017-04-03T01:06:20.479Z,66.2
2017-04-03T01:07:23.581Z,66.2
2017-04-03T01:08:25.925Z,66.2
2017-04-03T01:09:28.640Z,66.2
2017-04-03T01:10:31.486Z,66.3
2017-04-03T01:11:34.332Z,66.2
2017-04-03T01:12:36.985Z,66.3
2017-04-03T01:13:39.833Z,66.3
2017-04-03T01:14:42.179Z,66.4
2017-04-03T01:15:45.031Z,66.3
2017-04-03T01:16:47.749Z,66.3
2017-04-03T01:17:50.825Z,66.2
2017-04-03T01:18:53.036Z,66.2
2017-04-03T01:19:55.889Z,66.3
2017-04-03T01:20:58.737Z,66.2
2017-04-03T01:22:01.584Z,66.2
2017-04-03T01:23:04.809Z,66
2017-04-03T01:24:07.017Z,66.3
2017-04-03T01:25:09.282Z,66.1
2017-04-03T01:26:12.501Z,66
2017-04-03T01:27:14.846Z,66
2017-04-03T01:28:17.866Z,66.2
2017-04-03T01:29:20.212Z,66
2017-04-03T01:30:23.057Z,66.1
2017-04-03T01:31:25.774Z,66.2
2017-04-03T01:32:28.489Z,66.1
2017-04-03T01:33:31.451Z,66.2
2017-04-03T01:34:33.801Z,66.2
2017-04-03T01:35:36.652Z,66.2
2017-04-03T01:36:39.501Z,66.2
2017-04-03T01:37:42.351Z,66.2
2017-04-03T01:38:44.947Z,66.2
2017-04-03T01:39:47.800Z,66.3
2017-04-03T01:40:50.148Z,66.1
2017-04-03T01:41:53.003Z,66.4
2017-04-03T01:42:55.856Z,66.4
2017-04-03T01:43:59.004Z,66.4
2017-04-03T01:45:01.349Z,66.6
2017-04-03T01:46:03.756Z,66.6
2017-04-03T01:47:06.600Z,66.6
2017-04-03T01:48:09.309Z,66.6
2017-04-03T01:49:12.408Z,66.6
2017-04-03T01:50:14.754Z,66.6
2017-04-03T01:51:17.601Z,66.8
2017-04-03T01:52:20.454Z,66.7
2017-04-03T01:53:22.799Z,66.8
2017-04-03T01:54:25.954Z,66.8
2017-04-03T01:55:28.297Z,66.6
2017-04-03T01:56:31.707Z,66.7
2017-04-03T01:57:33.547Z,66.6
2017-04-03T01:58:36.397Z,66.7
2017-04-03T01:59:39.495Z,66.7
2017-04-03T02:01:44.618Z,66.8
2017-04-03T02:02:47.464Z,66.8
2017-04-03T02:03:50.314Z,66.7
2017-04-03T02:04:52.909Z,66.8
2017-04-03T02:05:55.762Z,66.9
2017-04-03T02:06:58.108Z,66.6
2017-04-03T02:09:03.593Z,66.9
2017-04-03T02:10:06.607Z,66.7
2017-04-03T02:11:08.955Z,66.8
2017-04-03T02:12:11.807Z,66.7
2017-04-03T02:13:14.657Z,66.7
2017-04-03T02:14:17.003Z,66.8
2017-04-03T02:15:20.020Z,66.9
2017-04-03T02:16:22.734Z,66.9
2017-04-03T02:17:26.138Z,66.9
2017-04-03T02:18:27.978Z,66.9
2017-04-03T02:19:30.692Z,66.8
2017-04-03T02:21:36.184Z,66.8
2017-04-03T02:22:39.588Z,66.8
2017-04-03T02:23:41.796Z,66.9
2017-04-03T02:24:44.510Z,67.1
2017-04-03T02:25:47.225Z,67
2017-04-03T02:26:50.327Z,67.2
2017-04-03T02:29:58.009Z,67.3
2017-04-03T02:31:00.858Z,67.3
2017-04-03T02:32:03.320Z,67.4
2017-04-03T02:33:06.036Z,67.4
2017-04-03T02:34:08.893Z,67.2
2017-04-03T02:35:11.743Z,67.1
2017-04-03T02:36:14.090Z,67.2
2017-04-03T02:37:17.153Z,67.2
2017-04-03T02:38:19.501Z,67.1
2017-04-03T02:39:22.353Z,66.7
2017-04-03T02:40:25.196Z,66.6
2017-04-03T02:42:31.074Z,66.5
2017-04-03T02:43:33.419Z,66.5
2017-04-03T02:44:35.863Z,66.2
2017-04-03T02:45:38.766Z,66.3
2017-04-03T02:46:41.668Z,66.3
2017-04-03T02:47:44.197Z,66.4
2017-04-03T02:48:46.914Z,66.4
2017-04-03T02:49:49.764Z,66.3
2017-04-03T02:50:52.489Z,66.3
2017-04-03T02:51:54.832Z,66.3
2017-04-03T02:52:57.930Z,66.3
2017-04-03T02:54:00.276Z,66.2
2017-04-03T02:55:03.129Z,66.1
2017-04-03T02:56:05.849Z,66.2
2017-04-03T02:59:14.324Z,66.3
2017-04-03T03:00:16.596Z,66.3
2017-04-03T03:01:19.447Z,66.4
2017-04-03T03:02:22.157Z,66.4
2017-04-03T03:03:24.735Z,66.4
2017-04-03T03:04:27.746Z,66.3
2017-04-03T03:05:30.067Z,66.3
2017-04-03T03:06:32.911Z,66.3
2017-04-03T03:07:35.756Z,66.3
2017-04-03T03:08:38.466Z,66.3
2017-04-03T03:09:41.618Z,66.3
2017-04-03T03:10:43.963Z,66.4
2017-04-03T03:11:46.310Z,66.3
2017-04-03T03:12:49.155Z,66.4
2017-04-03T03:13:51.996Z,66.4
2017-04-03T03:15:57.504Z,66.2
2017-04-03T03:17:00.349Z,66.4
2017-04-03T03:18:02.693Z,66.1
2017-04-03T03:19:06.107Z,66.3
2017-04-03T03:20:08.453Z,66.2
2017-04-03T03:21:11.099Z,66.2
2017-04-03T03:22:13.451Z,66.4
2017-04-03T03:23:16.298Z,66.3
2017-04-03T03:24:19.147Z,66.2
2017-04-03T03:25:21.997Z,66.3
2017-04-03T03:26:24.513Z,66.4
2017-04-03T03:27:27.360Z,66.5
2017-04-03T03:28:29.773Z,66.5
2017-04-03T03:29:32.487Z,66.6
2017-04-03T03:30:35.337Z,66.8
2017-04-03T03:31:38.999Z,66.8
2017-04-03T03:32:40.844Z,66.7
2017-04-03T03:33:43.693Z,66.8
2017-04-03T03:34:46.038Z,66.9
2017-04-03T03:35:48.885Z,67
2017-04-03T03:36:51.986Z,67
2017-04-03T03:37:54.893Z,67
2017-04-03T03:38:57.237Z,67
2017-04-03T03:39:59.584Z,67.2
2017-04-03T03:41:02.431Z,67.3
2017-04-03T03:42:05.392Z,67.6
2017-04-03T03:43:07.737Z,67.7
2017-04-03T03:44:10.582Z,67.9
2017-04-03T03:45:13.428Z,68
2017-04-03T03:46:15.777Z,68.1
2017-04-03T03:47:18.667Z,68.2
2017-04-03T03:48:21.517Z,68.3
2017-04-03T03:49:23.863Z,68.4
2017-04-03T03:50:26.760Z,68.4
2017-04-03T03:51:29.608Z,68.7
2017-04-03T03:52:32.204Z,68.8
2017-04-03T03:53:34.916Z,68.8
2017-04-03T03:55:40.229Z,68.8
2017-04-03T03:56:43.078Z,69
2017-04-03T03:57:46.039Z,69.1
2017-04-03T03:58:48.381Z,69.1
2017-04-03T03:59:51.225Z,69.3
2017-04-03T04:00:53.570Z,69.2
2017-04-03T04:01:56.417Z,69.3
2017-04-03T04:02:59.634Z,69.7
2017-04-03T04:04:01.981Z,69.7
2017-04-03T04:05:04.834Z,69.9
2017-04-03T04:06:07.184Z,69.9
2017-04-03T04:07:10.036Z,70
2017-04-03T04:08:13.135Z,70
2017-04-03T04:09:15.480Z,70
2017-04-03T04:10:18.332Z,70.1
2017-04-03T04:11:20.678Z,70.5
2017-04-03T04:12:23.393Z,70.5
2017-04-03T04:13:27.053Z,70.8
2017-04-03T04:14:28.899Z,71.1
2017-04-03T04:15:31.824Z,71.2
2017-04-03T04:16:34.170Z,71.3
2017-04-03T04:17:37.021Z,71.6
2017-04-03T04:18:40.172Z,71.7
2017-04-03T04:19:42.515Z,71.8
2017-04-03T04:20:44.862Z,71.8
2017-04-03T04:21:47.712Z,71.9
2017-04-03T04:22:50.425Z,72
2017-04-03T04:23:53.513Z,72
2017-04-03T04:24:55.913Z,72
2017-04-03T04:25:58.763Z,72.5
2017-04-03T04:27:01.106Z,72.4
2017-04-03T04:28:03.953Z,72.5
2017-04-03T04:29:07.053Z,72.5
2017-04-03T04:30:09.398Z,72.8
2017-04-03T04:31:12.246Z,72.8
2017-04-03T04:32:14.596Z,72.9
2017-04-03T04:34:20.610Z,73
2017-04-03T04:35:22.818Z,73.3
2017-04-03T04:36:25.666Z,73.7
2017-04-03T04:37:28.013Z,73.6
2017-04-03T04:38:30.865Z,73.7
2017-04-03T04:39:33.965Z,74.2
2017-04-03T04:40:36.178Z,73.9
2017-04-03T04:41:39.026Z,74.1
2017-04-03T04:42:41.374Z,74.2
2017-04-03T04:43:44.228Z,74.4
2017-04-03T04:44:47.194Z,74.5
2017-04-03T04:45:49.539Z,74.4
2017-04-03T04:46:52.394Z,74.3
2017-04-03T04:47:55.246Z,74.4
2017-04-03T04:48:57.592Z,74.5
2017-04-03T04:50:00.696Z,74.8
2017-04-03T04:51:03.084Z,74.7
2017-04-03T04:52:05.837Z,74.8
2017-04-03T04:53:08.695Z,74.6
2017-04-03T04:54:11.043Z,74.6
2017-04-03T04:55:14.145Z,74.3
2017-04-03T04:56:16.494Z,74.4
2017-04-03T04:57:19.348Z,74.6
2017-04-03T04:58:21.703Z,74.7
2017-04-03T04:59:24.555Z,75.1
2017-04-03T05:00:27.395Z,75
2017-04-03T05:01:29.746Z,74.8
2017-04-03T05:03:35.522Z,74.6
2017-04-03T05:04:37.864Z,74.6
2017-04-03T05:05:40.578Z,74.7
2017-04-03T05:06:43.253Z,74.7
2017-04-03T05:07:46.096Z,74.7
2017-04-03T05:08:48.445Z,74.6
2017-04-03T05:09:51.157Z,74.5
2017-04-03T05:10:54.309Z,74.5
2017-04-03T05:11:56.654Z,74.4
2017-04-03T05:12:59.430Z,74.3
2017-04-03T05:14:02.144Z,74.2
2017-04-03T05:15:04.859Z,74.4
2017-04-03T05:16:07.510Z,74.6
2017-04-03T05:17:10.414Z,74.7
2017-04-03T05:18:12.797Z,74.7
2017-04-03T05:19:15.644Z,74.8
2017-04-03T05:20:17.989Z,75
2017-04-03T05:21:21.089Z,75.2
2017-04-03T05:22:23.473Z,75.1
2017-04-03T05:23:26.329Z,75
2017-04-03T05:24:28.681Z,75.1
2017-04-03T05:25:31.530Z,75.4
2017-04-03T05:26:34.494Z,75.2
2017-04-03T05:27:36.836Z,75.2
2017-04-03T05:28:39.549Z,75.2
2017-04-03T05:29:42.397Z,75
2017-04-03T05:30:44.741Z,74.6
2017-04-03T05:31:47.844Z,74.7
2017-04-03T05:32:50.054Z,75.2
2017-04-03T05:33:52.902Z,75.5
2017-04-03T05:34:55.748Z,75.5
2017-04-03T05:35:58.151Z,75.4
2017-04-03T05:37:01.254Z,75.3
2017-04-03T05:38:03.473Z,75.4
2017-04-03T05:39:06.322Z,75.3
2017-04-03T05:40:09.175Z,74.9
2017-04-03T05:41:11.529Z,75
2017-04-03T05:42:14.685Z,75
2017-04-03T05:43:16.898Z,74.9
2017-04-03T05:44:19.754Z,74.7
2017-04-03T05:45:22.603Z,75.1
2017-04-03T05:46:24.947Z,75
2017-04-03T05:47:28.044Z,74.8
2017-04-03T05:48:30.445Z,74.6
2017-04-03T05:49:32.825Z,74.6
2017-04-03T05:50:35.675Z,74.8
2017-04-03T05:51:38.526Z,75.2
2017-04-03T05:52:41.122Z,74.9
2017-04-03T05:53:44.529Z,75.1
2017-04-03T05:54:46.370Z,74.9
2017-04-03T05:55:49.779Z,74.8
2017-04-03T05:56:51.623Z,74.7
2017-04-03T05:57:54.728Z,75.1
2017-04-03T05:58:57.086Z,75
2017-04-03T06:00:00.366Z,74.9
2017-04-03T06:01:02.289Z,74.5
2017-04-03T06:02:05.139Z,73.8
2017-04-03T06:03:08.239Z,73.1
2017-04-03T06:04:10.586Z,72.8
2017-04-03T06:05:12.928Z,72.4
2017-04-03T06:06:15.644Z,71.9
2017-04-03T06:07:18.494Z,71.5
2017-04-03T06:08:21.603Z,71.1
2017-04-03T06:09:23.818Z,70.9
2017-04-03T06:10:26.663Z,70.6
2017-04-03T06:11:28.784Z,70.9
2017-04-03T06:12:31.633Z,71
2017-04-03T06:13:34.740Z,71.3
2017-04-03T06:14:37.086Z,71.4
2017-04-03T06:15:39.946Z,71.3
2017-04-03T06:16:42.661Z,71.6
2017-04-03T06:17:45.067Z,70.6
2017-04-03T06:18:48.225Z,70.2
2017-04-03T06:19:50.567Z,69.8
2017-04-03T06:20:53.416Z,69.7
2017-04-03T06:21:55.762Z,68.8
2017-04-03T06:22:58.612Z,68.5
2017-04-03T06:24:01.822Z,68.9
2017-04-03T06:25:04.230Z,68.1
2017-04-03T06:26:06.577Z,67.7
2017-04-03T06:27:09.424Z,68.2
2017-04-03T06:28:11.772Z,67.6
2017-04-03T06:29:14.792Z,67.4
2017-04-03T06:30:17.133Z,66.8
2017-04-03T06:31:19.982Z,66.8
2017-04-03T06:32:22.825Z,66
2017-04-03T06:33:25.045Z,65.1
2017-04-03T06:35:30.923Z,65.7
2017-04-03T06:36:33.133Z,66.3
2017-04-03T06:37:35.980Z,67.5
2017-04-03T06:38:38.696Z,67.9
2017-04-03T06:39:41.546Z,67.7
2017-04-03T06:40:44.513Z,67.8
2017-04-03T06:41:46.857Z,67.9
2017-04-03T06:42:49.712Z,67.2
2017-04-03T06:43:52.069Z,67.1
2017-04-03T06:44:54.920Z,67.1
2017-04-03T06:45:58.020Z,66.9
2017-04-03T06:47:00.924Z,66.8
2017-04-03T06:48:02.634Z,66.9
2017-04-03T06:49:05.352Z,66.8
2017-04-03T06:50:08.261Z,66.4
2017-04-03T06:51:11.367Z,65.9
2017-04-03T06:52:13.713Z,65.4
2017-04-03T06:53:16.427Z,66.1
2017-04-03T06:54:18.775Z,65.6
2017-04-03T06:55:21.623Z,65.5
2017-04-03T06:56:24.637Z,66.3
2017-04-03T06:57:26.983Z,66.3
2017-04-03T06:58:29.512Z,66.2
2017-04-03T06:59:32.359Z,66.5
2017-04-03T07:00:35.205Z,65.6
2017-04-03T07:01:37.803Z,65.6
2017-04-03T07:02:40.515Z,65.7
2017-04-03T07:03:43.229Z,66.7
2017-04-03T07:04:45.579Z,67
2017-04-03T07:05:48.429Z,66.3
2017-04-03T07:06:51.588Z,66.1
2017-04-03T07:07:53.990Z,66
2017-04-03T07:08:56.337Z,66.2
2017-04-03T07:09:59.742Z,65.8
2017-04-03T07:11:01.956Z,64.8
2017-04-03T07:12:05.155Z,63.7
2017-04-03T07:13:08.054Z,64.1
2017-04-03T07:14:09.894Z,63.7
2017-04-03T07:15:12.740Z,63
2017-04-03T07:16:15.590Z,63.1
2017-04-03T07:17:18.610Z,62.7
2017-04-03T07:18:20.790Z,62.9
2017-04-03T07:19:23.645Z,62.9
2017-04-03T07:20:25.851Z,64.4
2017-04-03T07:21:28.564Z,64.9
2017-04-03T07:22:31.709Z,65.3
2017-04-03T07:23:34.053Z,65.2
2017-04-03T07:24:36.766Z,65.5
2017-04-03T07:25:39.343Z,64.7
2017-04-03T07:26:42.243Z,64.4
2017-04-03T07:27:45.397Z,64.1
2017-04-03T07:28:47.743Z,64.6
2017-04-03T07:29:50.588Z,64.3
2017-04-03T07:30:52.936Z,63.4
2017-04-03T07:31:55.797Z,63
2017-04-03T07:32:58.901Z,63.9
2017-04-03T07:34:01.242Z,64.5
2017-04-03T07:35:04.094Z,65
2017-04-03T07:37:09.349Z,64
2017-04-03T07:38:11.946Z,63.7
2017-04-03T07:39:14.663Z,63.3
2017-04-03T07:40:17.380Z,62.7
2017-04-03T07:41:20.230Z,62
2017-04-03T07:42:22.451Z,61.9
2017-04-03T07:43:25.422Z,61.5
2017-04-03T07:44:28.269Z,62.1
2017-04-03T07:45:30.615Z,62.3
2017-04-03T07:46:33.462Z,62.4
2017-04-03T07:47:36.175Z,62.3
2017-04-03T07:48:39.329Z,62.2
2017-04-03T07:49:41.675Z,62.4
2017-04-03T07:50:44.526Z,61.8
2017-04-03T07:51:46.871Z,63.1
2017-04-03T07:52:49.722Z,62.4
2017-04-03T07:53:52.822Z,63.5
2017-04-03T07:54:55.219Z,63.6
2017-04-03T07:55:57.572Z,62.7
2017-04-03T07:57:00.432Z,61.2
2017-04-03T07:58:03.847Z,61.1
2017-04-03T07:59:05.937Z,61.9
2017-04-03T08:00:08.790Z,61.8
2017-04-03T08:01:11.140Z,62.1
2017-04-03T08:02:14.020Z,62.6
2017-04-03T08:03:16.869Z,62.9
2017-04-03T08:04:19.467Z,62.6
2017-04-03T08:05:22.319Z,61.8
2017-04-03T08:06:24.659Z,62.3
2017-04-03T08:07:27.502Z,63.3
2017-04-03T08:08:30.351Z,63.8
2017-04-03T08:09:32.954Z,64.3
2017-04-03T08:10:35.797Z,62.9
2017-04-03T08:11:38.010Z,64
2017-04-03T08:12:41.090Z,63.4
2017-04-03T08:13:43.940Z,62.1
2017-04-03T08:14:46.906Z,61.5
2017-04-03T08:15:49.249Z,62.6
2017-04-03T08:16:52.105Z,61.9
2017-04-03T08:17:54.316Z,61.6
2017-04-03T08:18:57.163Z,61.5
2017-04-03T08:20:00.311Z,62.8
2017-04-03T08:21:02.655Z,62.6
2017-04-03T08:22:05.505Z,63
2017-04-03T08:23:07.855Z,64.2
2017-04-03T08:24:10.704Z,64.5
2017-04-03T08:25:13.928Z,64.4
2017-04-03T08:26:16.272Z,64
2017-04-03T08:28:21.529Z,64.2
2017-04-03T08:29:24.797Z,64.8
2017-04-03T08:30:27.394Z,65.7
2017-04-03T08:31:30.313Z,66
2017-04-03T08:32:32.660Z,65.5
2017-04-03T08:33:35.000Z,65.6
2017-04-03T08:34:37.850Z,67.3
2017-04-03T08:35:40.951Z,67
2017-04-03T08:36:43.159Z,67.2
2017-04-03T08:37:45.869Z,67.3
2017-04-03T08:38:48.716Z,67.7
2017-04-03T08:39:51.437Z,67.5
2017-04-03T08:40:54.538Z,67.4
2017-04-03T08:41:56.921Z,67.9
2017-04-03T08:42:59.273Z,67.6
2017-04-03T08:44:02.279Z,67
2017-04-03T08:45:04.626Z,66.9
2017-04-03T08:46:07.594Z,67.3
2017-04-03T08:47:10.445Z,67.2
2017-04-03T08:48:12.791Z,67.5
2017-04-03T08:49:15.636Z,67.6
2017-04-03T08:50:18.484Z,67.4
2017-04-03T08:51:21.081Z,67.3
2017-04-03T08:52:23.933Z,68.7
2017-04-03T08:53:26.345Z,69.6
2017-04-03T08:54:29.057Z,69.3
2017-04-03T08:55:31.914Z,68.8
2017-04-03T08:56:34.932Z,68.7
2017-04-03T08:57:37.277Z,68.6
2017-04-03T08:58:40.134Z,68.8
2017-04-03T08:59:42.485Z,69.8
2017-04-03T09:00:45.330Z,70.2
2017-04-03T09:01:47.984Z,70.8
2017-04-03T09:02:50.836Z,70.7
2017-04-03T09:03:53.184Z,71.5
2017-04-03T09:04:56.030Z,70.8
2017-04-03T09:05:58.743Z,71
2017-04-03T09:07:01.848Z,71.4
2017-04-03T09:08:04.196Z,71.7
2017-04-03T09:09:06.546Z,72
2017-04-03T09:10:09.390Z,71.5
2017-04-03T09:11:12.237Z,70.3
2017-04-03T09:12:15.251Z,70.1
2017-04-03T09:13:17.593Z,69.8
2017-04-03T09:14:19.941Z,69.5
2017-04-03T09:15:22.790Z,69.7
2017-04-03T09:16:25.639Z,69.5
2017-04-03T09:17:28.236Z,70.6
2017-04-03T09:18:30.952Z,71.6
2017-04-03T09:19:33.298Z,71.1
2017-04-03T09:20:36.149Z,71.1
2017-04-03T09:21:39.047Z,70.4
2017-04-03T09:22:42.212Z,70.9
2017-04-03T09:23:44.059Z,72.2
2017-04-03T09:24:46.907Z,71.8
2017-04-03T09:25:49.756Z,71.5
2017-04-03T09:26:52.172Z,71.2
2017-04-03T09:27:55.143Z,71
2017-04-03T09:28:57.487Z,70.5
2017-04-03T09:30:00.402Z,70.1
2017-04-03T09:31:03.251Z,70
2017-04-03T09:32:05.598Z,71.5
2017-04-03T09:33:08.564Z,72
2017-04-03T09:34:10.908Z,71.7
2017-04-03T09:35:13.760Z,71.1
2017-04-03T09:36:16.612Z,71.6
2017-04-03T09:37:19.017Z,71.2
2017-04-03T09:38:22.120Z,71.1
2017-04-03T09:39:24.509Z,72.3
2017-04-03T09:40:27.355Z,72.8
2017-04-03T09:41:29.702Z,72.4
2017-04-03T09:42:32.409Z,72.3
2017-04-03T09:43:35.375Z,71.8
2017-04-03T09:44:37.791Z,71.8
2017-04-03T09:45:40.648Z,71.5
2017-04-03T09:46:43.222Z,71.5
2017-04-03T09:47:46.069Z,71.1
2017-04-03T09:48:48.671Z,70.9
2017-04-03T09:49:51.020Z,70.6
2017-04-03T09:50:53.872Z,70
2017-04-03T09:51:56.592Z,71.2
2017-04-03T09:52:59.479Z,71.2
2017-04-03T09:54:01.955Z,70.6
2017-04-03T09:55:04.674Z,71.5
2017-04-03T09:56:06.886Z,70.6
2017-04-03T09:57:09.734Z,70.8
2017-04-03T09:58:12.583Z,70.5
2017-04-03T09:59:15.597Z,70.9
2017-04-03T10:00:17.827Z,71.1
2017-04-03T10:01:20.680Z,71.2
2017-04-03T10:02:23.258Z,70.9
2017-04-03T10:03:26.115Z,71.1
2017-04-03T10:04:28.768Z,71.5
2017-04-03T10:05:31.477Z,71
2017-04-03T10:06:33.822Z,71.6
2017-04-03T10:07:36.581Z,71.8
2017-04-03T10:08:39.432Z,72.6
2017-04-03T10:09:42.538Z,71.9
2017-04-03T10:10:44.610Z,71.3
2017-04-03T10:12:49.862Z,71.6
2017-04-03T10:13:52.708Z,71.8
2017-04-03T10:14:55.809Z,71.7
2017-04-03T10:15:58.015Z,71.8
2017-04-03T10:18:03.276Z,72
2017-04-03T10:19:06.125Z,72.1
2017-04-03T10:20:09.225Z,71.6
2017-04-03T10:21:11.575Z,71
2017-04-03T10:22:14.427Z,70.3
2017-04-03T10:23:16.775Z,71.4
2017-04-03T10:24:19.622Z,72
2017-04-03T10:25:22.586Z,72
2017-04-03T10:26:24.981Z,72.8
2017-04-03T10:27:27.328Z,72.2
2017-04-03T10:28:30.175Z,72.2
2017-04-03T10:29:33.022Z,72.3
2017-04-03T10:30:35.984Z,72.2
2017-04-03T10:31:38.334Z,72.6
2017-04-03T10:32:41.051Z,72.4
2017-04-03T10:33:43.393Z,72.4
2017-04-03T10:34:46.248Z,72.8
2017-04-03T10:35:49.349Z,72.8
2017-04-03T10:36:51.571Z,72.4
2017-04-03T10:37:54.278Z,72
2017-04-03T10:38:57.032Z,71.6
2017-04-03T10:39:59.879Z,71.4
2017-04-03T10:41:02.848Z,71.3
2017-04-03T10:42:05.196Z,72.1
2017-04-03T10:43:07.543Z,72.6
2017-04-03T10:44:10.392Z,72.3
2017-04-03T10:45:13.246Z,72.2
2017-04-03T10:46:16.217Z,72.7
2017-04-03T10:47:18.558Z,72.6
2017-04-03T10:48:20.908Z,72.4
2017-04-03T10:49:23.623Z,72.2
2017-04-03T10:50:26.338Z,72.9
2017-04-03T10:51:29.301Z,73.2
2017-04-03T10:52:32.013Z,73.1
2017-04-03T10:53:34.590Z,73.7
2017-04-03T10:54:37.349Z,73.2
2017-04-03T10:55:39.562Z,72.8
2017-04-03T10:56:42.666Z,72.9
2017-04-03T10:58:47.791Z,73.3
2017-04-03T10:59:50.639Z,74
2017-04-03T11:00:52.989Z,74.5
2017-04-03T11:01:56.087Z,74.6
2017-04-03T11:02:58.435Z,74.4
2017-04-03T11:04:01.285Z,74.3
2017-04-03T11:05:04.128Z,74.2
2017-04-03T11:06:06.474Z,73.9
2017-04-03T11:07:09.438Z,73.7
2017-04-03T11:08:12.022Z,73.8
2017-04-03T11:09:14.868Z,73.9
2017-04-03T11:10:17.214Z,73.7
2017-04-03T11:11:20.063Z,73.5
2017-04-03T11:12:23.168Z,73.1
2017-04-03T11:13:25.510Z,72.5
2017-04-03T11:14:27.855Z,72.3
2017-04-03T11:15:30.570Z,71.8
2017-04-03T11:16:33.418Z,72.6
2017-04-03T11:17:36.510Z,73
2017-04-03T11:18:38.630Z,72.4
2017-04-03T11:19:41.482Z,73.1
2017-04-03T11:20:43.826Z,74.1
2017-04-03T11:21:46.672Z,74.3
2017-04-03T11:22:49.635Z,74.3
2017-04-03T11:23:51.979Z,74
2017-04-03T11:24:54.830Z,73.2
2017-04-03T11:25:57.679Z,73
2017-04-03T11:26:59.888Z,72.7
2017-04-03T11:28:03.057Z,72.8
2017-04-03T11:29:05.400Z,73.3
2017-04-03T11:30:08.248Z,73.2
2017-04-03T11:31:10.662Z,73
2017-04-03T11:33:16.172Z,74
2017-04-03T11:34:19.617Z,74.1
2017-04-03T11:35:21.455Z,74.1
2017-04-03T11:36:24.307Z,73.8
2017-04-03T11:37:26.657Z,74.1
2017-04-03T11:39:32.401Z,74
2017-04-03T11:41:37.532Z,74
2017-04-03T11:42:40.379Z,74.4
2017-04-03T11:43:42.726Z,74.2
2017-04-03T11:44:45.829Z,73.7
2017-04-03T11:45:48.173Z,73.6
2017-04-03T11:46:51.019Z,73.3
2017-04-03T11:47:53.409Z,73.2
2017-04-03T11:48:56.125Z,73
2017-04-03T11:49:59.226Z,72.9
2017-04-03T11:51:01.574Z,73.1
2017-04-03T11:52:04.430Z,73
2017-04-03T11:53:06.779Z,73.5
2017-04-03T11:54:09.626Z,73.7
2017-04-03T11:55:12.726Z,73.7
2017-04-03T11:56:15.081Z,73.1
2017-04-03T11:57:17.795Z,73.2
2017-04-03T11:58:20.138Z,73.6
2017-04-03T11:59:22.716Z,73.9
2017-04-03T12:00:25.863Z,73.4
2017-04-03T12:01:28.210Z,73.3
2017-04-03T12:02:31.619Z,73.3
2017-04-03T12:03:33.461Z,73.5
2017-04-03T12:04:36.360Z,73.4
2017-04-03T12:05:39.192Z,73.3
2017-04-03T12:06:41.913Z,73
2017-04-03T12:07:44.331Z,72.8
2017-04-03T12:08:47.192Z,72.9
2017-04-03T12:09:49.598Z,72.7
2017-04-03T12:10:52.695Z,72.3
2017-04-03T12:12:57.952Z,72.5
2017-04-03T12:14:00.300Z,72.5
2017-04-03T12:15:03.150Z,72.6
2017-04-03T12:16:06.155Z,72.1
2017-04-03T12:17:08.501Z,71.7
2017-04-03T12:18:10.854Z,72.5
2017-04-03T12:20:16.611Z,72.6
2017-04-03T12:21:19.209Z,72.7
2017-04-03T12:22:21.552Z,71.7
2017-04-03T12:23:24.405Z,71.2
2017-04-03T12:24:27.256Z,71.1
2017-04-03T12:25:29.598Z,71.3
2017-04-03T12:27:35.613Z,71
2017-04-03T12:28:37.955Z,71.6
2017-04-03T12:29:40.663Z,71.9
2017-04-03T12:30:43.010Z,71.7
2017-04-03T12:31:45.721Z,71.3
2017-04-03T12:32:48.939Z,70.9
2017-04-03T12:33:51.284Z,70.8
2017-04-03T12:34:53.629Z,70.5
2017-04-03T12:35:56.475Z,71.4
2017-04-03T12:36:59.330Z,71.8
2017-04-03T12:38:01.926Z,71.7
2017-04-03T12:39:04.783Z,71.7
2017-04-03T12:40:06.987Z,71.7
2017-04-03T12:41:09.702Z,71.4
2017-04-03T12:42:12.553Z,71.4
2017-04-03T12:43:15.655Z,71.6
2017-04-03T12:44:18.000Z,71.4
2017-04-03T12:45:20.346Z,70.8
2017-04-03T12:46:23.235Z,70.6
2017-04-03T12:47:26.088Z,70.2
2017-04-03T12:48:28.728Z,70
2017-04-03T12:49:31.638Z,69.8
2017-04-03T12:50:34.082Z,69.5
2017-04-03T12:51:36.427Z,69.4
2017-04-03T12:52:39.279Z,69.3
2017-04-03T12:53:42.953Z,69.5
2017-04-03T12:54:44.789Z,69.5
2017-04-03T12:55:47.134Z,69.4
2017-04-03T12:56:49.850Z,69.6
2017-04-03T12:57:52.697Z,69.4
2017-04-03T12:58:55.917Z,69.1
2017-04-03T13:01:00.669Z,69.4
2017-04-03T13:02:03.414Z,69.8
2017-04-03T13:03:05.996Z,70
2017-04-03T13:04:09.199Z,70
2017-04-03T13:05:11.410Z,69.5
2017-04-03T13:06:14.260Z,69.3
2017-04-03T13:07:16.607Z,69.1
2017-04-03T13:08:19.455Z,68.7
2017-04-03T13:09:22.606Z,68.2
2017-04-03T13:10:24.949Z,67.4
2017-04-03T13:11:27.399Z,67.4
2017-04-03T13:12:30.005Z,67.6
2017-04-03T13:13:32.739Z,67.7
2017-04-03T13:14:35.930Z,67.4
2017-04-03T13:15:38.277Z,67.1
2017-04-03T13:16:40.989Z,67.3
2017-04-03T13:17:43.895Z,67.2
2017-04-03T13:18:46.237Z,66.9
2017-04-03T13:19:49.435Z,66.8
2017-04-03T13:20:51.775Z,66.8
2017-04-03T13:21:54.132Z,66.2
2017-04-03T13:22:57.037Z,65.8
2017-04-03T13:23:59.387Z,65.7
2017-04-03T13:25:02.486Z,65.6
2017-04-03T13:26:05.205Z,65.8
2017-04-03T13:27:07.474Z,65.7
2017-04-03T13:28:10.188Z,65.8
2017-04-03T13:29:13.034Z,65.8
2017-04-03T13:30:16.232Z,65.6
2017-04-03T13:31:18.443Z,65.2
2017-04-03T13:32:21.294Z,65.9
2017-04-03T13:33:23.642Z,65.8
2017-04-03T13:34:26.495Z,66.3
2017-04-03T13:35:29.651Z,66.3
2017-04-03T13:36:31.997Z,65.9
2017-04-03T13:37:34.906Z,65.9
2017-04-03T13:38:37.249Z,65.5
2017-04-03T13:39:40.100Z,65.8
2017-04-03T13:40:42.560Z,66.3
2017-04-03T13:41:45.290Z,66.6
2017-04-03T13:42:48.002Z,66.5
2017-04-03T13:43:50.578Z,65.9
2017-04-03T13:44:53.334Z,66.1
2017-04-03T13:45:56.441Z,66.2
2017-04-03T13:46:58.824Z,66.3
2017-04-03T13:48:01.170Z,66.4
2017-04-03T13:49:04.016Z,66.5
2017-04-03T13:50:06.868Z,66.5
2017-04-03T13:51:09.513Z,66.6
2017-04-03T13:52:11.858Z,66.4
2017-04-03T13:53:14.571Z,66.7
2017-04-03T13:54:17.421Z,66.5
2017-04-03T13:55:20.136Z,66.1
2017-04-03T13:56:22.809Z,65.4
2017-04-03T13:57:25.657Z,64.9
2017-04-03T13:58:27.870Z,65.4
2017-04-03T13:59:30.589Z,65.6
2017-04-03T14:00:33.436Z,65.3
2017-04-03T14:01:36.539Z,65
2017-04-03T14:02:38.883Z,65.9
2017-04-03T14:03:41.594Z,65
2017-04-03T14:05:46.851Z,64.8
2017-04-03T14:06:49.949Z,64.7
2017-04-03T14:07:52.291Z,64.5
2017-04-03T14:08:55.138Z,64
2017-04-03T14:09:57.484Z,63.9
2017-04-03T14:11:00.195Z,64
2017-04-03T14:12:03.295Z,64.5
2017-04-03T14:13:05.639Z,64.5
2017-04-03T14:14:08.490Z,64.4
2017-04-03T14:15:11.071Z,64.3
2017-04-03T14:16:13.918Z,64.2
2017-04-03T14:17:16.514Z,64.3
2017-04-03T14:18:19.358Z,64.7
2017-04-03T14:19:21.709Z,64.6
2017-04-03T14:20:24.597Z,64.8
2017-04-03T14:21:26.940Z,64.6
2017-04-03T14:22:30.045Z,64.2
2017-04-03T14:23:32.248Z,63.7
2017-04-03T14:24:35.469Z,63.8
2017-04-03T14:25:38.395Z,63.5
2017-04-03T14:26:40.748Z,63.8
2017-04-03T14:27:43.204Z,64.2